createdAt,value
2022-11-19T00:00:29.820Z,94902.31
2022-11-19T00:05:31.303Z,94897.88
2022-11-19T00:10:35.083Z,94910.13
2022-11-19T00:15:37.516Z,94909.81
2022-11-19T00:20:38.912Z,94898.66
2022-11-19T00:25:40.292Z,94900.31
2022-11-19T00:30:48.035Z,94901.00
2022-11-19T00:35:50.020Z,94899.66
2022-11-19T00:40:51.620Z,94892.25
2022-11-19T00:45:53.024Z,94898.06
2022-11-19T00:50:54.444Z,94898.66
2022-11-19T00:55:55.926Z,94897.00
2022-11-19T01:00:57.534Z,94898.66
2022-11-19T01:05:59.366Z,94908.03
2022-11-19T01:11:25.745Z,94903.88
2022-11-19T01:16:33.140Z,94897.41
2022-11-19T01:21:35.973Z,94893.97
2022-11-19T01:26:40.520Z,94892.59
2022-11-19T01:31:44.378Z,94903.38
2022-11-19T01:36:45.845Z,94907.94
2022-11-19T01:41:47.303Z,94912.22
2022-11-19T01:46:48.703Z,94910.00
2022-11-19T01:51:58.362Z,94930.31
2022-11-19T01:57:03.012Z,94930.31
2022-11-19T02:02:04.877Z,94924.38
2022-11-19T02:07:09.427Z,94937.50
2022-11-19T02:12:25.885Z,94938.47
2022-11-19T02:18:00.705Z,94934.31
2022-11-19T02:23:27.979Z,94932.91
2022-11-19T02:28:43.278Z,94931.50
2022-11-19T02:33:56.215Z,94932.84
2022-11-19T02:39:12.103Z,94935.53
2022-11-19T02:44:29.001Z,94938.84
2022-11-19T02:49:34.100Z,94948.38
2022-11-19T02:54:35.630Z,94946.72
2022-11-19T02:59:41.644Z,94942.16
2022-11-19T03:04:43.289Z,94944.25
2022-11-19T03:09:52.879Z,94949.50
2022-11-19T03:15:02.351Z,94950.06
2022-11-19T03:20:24.952Z,94949.78
2022-11-19T03:25:32.508Z,94939.81
2022-11-19T03:30:34.314Z,94948.78
2022-11-19T03:35:58.553Z,94951.16
2022-11-19T03:41:03.126Z,94946.16
2022-11-19T03:46:10.047Z,94944.25
2022-11-19T03:51:17.728Z,94937.88
2022-11-19T03:56:23.831Z,94938.28
2022-11-19T04:01:25.365Z,94942.56
2022-11-19T04:06:26.978Z,94945.34
2022-11-19T04:11:28.368Z,94942.22
2022-11-19T04:16:29.876Z,94949.34
2022-11-19T04:21:31.402Z,94951.28
2022-11-19T04:26:32.786Z,94952.06
2022-11-19T04:31:34.209Z,94950.28
2022-11-19T04:36:36.235Z,94963.91
2022-11-19T04:41:38.749Z,94958.25
2022-11-19T04:46:40.187Z,94949.81
2022-11-19T04:51:41.601Z,94949.53
2022-11-19T04:56:43.028Z,94954.34
2022-11-19T05:01:44.473Z,94951.28
2022-11-19T05:06:45.947Z,94951.28
2022-11-19T05:11:47.380Z,94949.75
2022-11-19T05:16:48.841Z,94949.44
2022-11-19T05:21:50.294Z,94951.25
2022-11-19T05:26:51.700Z,94947.38
2022-11-19T05:31:53.143Z,94943.97
2022-11-19T05:36:54.598Z,94941.19
2022-11-19T05:41:56.566Z,94941.66
2022-11-19T05:46:58.016Z,94949.59
2022-11-19T05:51:59.491Z,94955.13
2022-11-19T05:57:00.888Z,94961.13
2022-11-19T06:02:02.370Z,94963.00
2022-11-19T06:07:04.334Z,94956.78
2022-11-19T06:12:06.150Z,94952.16
2022-11-19T06:17:07.623Z,94966.00
2022-11-19T06:22:09.893Z,94965.03
2022-11-19T06:27:11.451Z,94972.34
2022-11-19T06:32:12.853Z,94986.88
2022-11-19T06:37:14.309Z,94991.16
2022-11-19T06:42:15.801Z,94993.34
2022-11-19T06:47:17.313Z,94994.66
2022-11-19T06:52:18.711Z,95002.31
2022-11-19T06:57:20.180Z,95015.88
2022-11-19T07:02:21.943Z,95020.41
2022-11-19T07:07:23.600Z,95031.59
2022-11-19T07:12:25.181Z,95035.38
2022-11-19T07:17:26.683Z,95041.06
2022-11-19T07:22:28.073Z,95042.25
2022-11-19T07:27:29.465Z,95036.88
2022-11-19T07:32:30.903Z,95048.50
2022-11-19T07:37:32.389Z,95055.72
2022-11-19T07:42:33.818Z,95058.44
2022-11-19T07:47:42.554Z,95057.34
2022-11-19T07:52:44.451Z,95062.78
2022-11-19T07:57:45.862Z,95072.38
2022-11-19T08:02:47.253Z,95061.91
2022-11-19T08:07:48.701Z,95066.78
2022-11-19T08:12:50.136Z,95071.91
2022-11-19T08:17:51.554Z,95066.34
2022-11-19T08:22:53.042Z,95076.75
2022-11-19T08:27:54.478Z,95076.75
2022-11-19T08:32:56.061Z,95090.69
2022-11-19T08:37:57.492Z,95089.06
2022-11-19T08:42:58.915Z,95092.97
2022-11-19T08:48:02.579Z,95097.50
2022-11-19T08:53:05.467Z,95093.41
2022-11-19T08:58:07.600Z,95089.84
2022-11-19T09:03:09.028Z,95089.84
2022-11-19T09:08:10.502Z,95095.41
2022-11-19T09:13:11.916Z,95096.75
2022-11-19T09:18:13.317Z,95105.59
2022-11-19T09:23:14.767Z,95103.88
2022-11-19T09:28:16.235Z,95099.88
2022-11-19T09:33:17.649Z,95105.25
2022-11-19T09:38:19.280Z,95091.41
2022-11-19T09:43:53.239Z,95104.56
2022-11-19T09:48:59.344Z,95104.91
2022-11-19T09:54:13.134Z,95106.69
2022-11-19T09:59:24.384Z,95109.78
2022-11-19T10:04:31.477Z,95107.84
2022-11-19T10:09:59.686Z,95096.63
2022-11-19T10:15:29.245Z,95093.03
2022-11-19T10:21:23.324Z,95089.53
2022-11-19T10:26:39.077Z,95084.78
2022-11-19T10:31:47.778Z,95070.63
2022-11-19T10:36:49.141Z,95070.75
2022-11-19T10:41:58.196Z,95067.94
2022-11-19T10:47:00.739Z,95050.91
2022-11-19T10:52:02.647Z,95064.88
2022-11-19T10:57:04.232Z,95059.00
2022-11-19T11:02:35.196Z,95055.22
2022-11-19T11:07:50.789Z,95055.38
2022-11-19T11:12:53.338Z,95050.34
2022-11-19T11:18:03.547Z,95038.72
2022-11-19T11:23:24.993Z,95042.47
2022-11-19T11:28:26.491Z,95038.78
2022-11-19T11:33:36.938Z,95031.88
2022-11-19T11:38:44.912Z,95041.94
2022-11-19T11:43:55.701Z,95037.56
2022-11-19T11:49:04.000Z,95033.03
2022-11-19T11:54:18.898Z,95026.41
2022-11-19T11:59:29.942Z,95004.75
2022-11-19T12:04:32.374Z,95006.63
2022-11-19T12:10:03.008Z,95016.53
2022-11-19T12:15:18.528Z,95013.59
2022-11-19T12:20:47.383Z,95013.38
2022-11-19T12:26:16.378Z,95030.88
2022-11-19T12:31:42.368Z,95029.63
2022-11-19T12:37:16.490Z,95032.34
2022-11-19T12:42:42.741Z,95041.34
2022-11-19T12:48:01.649Z,95047.06
2022-11-19T12:53:19.051Z,95041.25
2022-11-19T12:58:36.212Z,95041.69
2022-11-19T13:04:14.268Z,95039.28
2022-11-19T13:09:32.327Z,95028.22
2022-11-19T13:14:44.543Z,95026.50
2022-11-19T13:19:51.188Z,95022.34
2022-11-19T13:25:18.332Z,95025.56
2022-11-19T13:30:24.462Z,95028.88
2022-11-19T13:35:49.202Z,95033.97
2022-11-19T13:41:10.994Z,95031.56
2022-11-19T13:46:24.711Z,95024.13
2022-11-19T13:51:40.247Z,95024.22
2022-11-19T13:56:48.378Z,95024.00
2022-11-19T14:02:04.356Z,95014.22
2022-11-19T14:07:32.042Z,95022.09
2022-11-19T14:12:45.356Z,95016.09
2022-11-19T14:18:14.067Z,95011.41
2022-11-19T14:23:37.317Z,95011.94
2022-11-19T14:28:50.538Z,95017.13
2022-11-19T14:34:01.984Z,95017.34
2022-11-19T14:39:12.010Z,95020.38
2022-11-19T14:44:32.862Z,95017.31
2022-11-19T14:49:36.904Z,95013.53
2022-11-19T14:54:43.336Z,95033.25
2022-11-19T14:59:48.567Z,95028.13
2022-11-19T15:05:07.272Z,95031.13
2022-11-19T15:10:09.789Z,95032.38
2022-11-19T15:15:20.385Z,95031.81
2022-11-19T15:20:33.468Z,95033.66
2022-11-19T15:26:03.051Z,95045.59
2022-11-19T15:31:43.871Z,95040.63
2022-11-19T15:36:48.911Z,95045.06
2022-11-19T15:41:55.708Z,95056.19
2022-11-19T15:47:00.572Z,95055.91
2022-11-19T15:52:17.337Z,95055.66
2022-11-19T15:57:27.171Z,95062.84
2022-11-19T16:02:33.224Z,95077.69
2022-11-19T16:07:34.791Z,95082.66
2022-11-19T16:12:36.313Z,95089.31
2022-11-19T16:17:44.491Z,95088.63
2022-11-19T16:22:48.530Z,95100.28
2022-11-19T16:27:50.158Z,95110.66
2022-11-19T16:32:51.885Z,95106.22
2022-11-19T16:37:54.624Z,95118.28
2022-11-19T16:42:59.637Z,95114.41
2022-11-19T16:48:02.249Z,95119.41
2022-11-19T16:53:06.316Z,95129.78
2022-11-19T16:58:15.461Z,95138.06
2022-11-19T17:03:22.783Z,95139.31
2022-11-19T17:08:27.964Z,95138.34
2022-11-19T17:13:32.040Z,95141.25
2022-11-19T17:18:33.586Z,95144.56
2022-11-19T17:23:47.713Z,95143.31
2022-11-19T17:28:51.831Z,95161.59
2022-11-19T17:34:06.968Z,95156.63
2022-11-19T17:39:12.602Z,95160.88
2022-11-19T17:44:23.088Z,95158.25
2022-11-19T17:49:24.767Z,95161.00
2022-11-19T17:54:26.499Z,95159.41
2022-11-19T17:59:28.039Z,95170.66
2022-11-19T18:04:29.496Z,95175.16
2022-11-19T18:09:34.769Z,95173.38
2022-11-19T18:14:36.555Z,95173.09
2022-11-19T18:19:38.053Z,95171.44
2022-11-19T18:24:39.514Z,95184.00
2022-11-19T18:29:40.936Z,95192.00
2022-11-19T18:34:43.572Z,95182.50
2022-11-19T18:39:44.969Z,95185.25
2022-11-19T18:44:46.515Z,95197.38
2022-11-19T18:49:47.894Z,95203.09
2022-11-19T18:54:49.368Z,95210.84
2022-11-19T18:59:50.854Z,95202.34
2022-11-19T19:04:52.348Z,95212.66
2022-11-19T19:09:55.002Z,95215.19
2022-11-19T19:14:56.519Z,95212.41
2022-11-19T19:19:57.980Z,95207.03
2022-11-19T19:24:59.453Z,95216.97
2022-11-19T19:30:01.011Z,95222.13
2022-11-19T19:35:02.484Z,95216.63
2022-11-19T19:40:04.324Z,95223.94
2022-11-19T19:45:06.258Z,95234.28
2022-11-19T19:50:08.034Z,95238.44
2022-11-19T19:55:09.549Z,95238.44
2022-11-19T20:00:11.528Z,95235.09
2022-11-19T20:05:15.949Z,95239.22
2022-11-19T20:10:17.456Z,95247.22
2022-11-19T20:15:19.108Z,95246.22
2022-11-19T20:20:20.564Z,95249.41
2022-11-19T20:25:22.023Z,95251.34
2022-11-19T20:30:23.551Z,95253.97
2022-11-19T20:35:25.009Z,95257.56
2022-11-19T20:40:26.471Z,95258.94
2022-11-19T20:45:27.946Z,95261.31
2022-11-19T20:50:29.415Z,95266.28
2022-11-19T20:55:30.881Z,95261.31
2022-11-19T21:00:32.335Z,95269.72
2022-11-19T21:05:33.754Z,95262.94
2022-11-19T21:10:35.166Z,95260.19
2022-11-19T21:15:36.592Z,95254.63
2022-11-19T21:20:38.014Z,95250.44
2022-11-19T21:25:39.506Z,95247.38
2022-11-19T21:30:41.141Z,95245.53
2022-11-19T21:35:42.568Z,95241.75
2022-11-19T21:40:44.011Z,95245.59
2022-11-19T21:45:45.911Z,95256.84
2022-11-19T21:50:47.987Z,95259.75
2022-11-19T21:55:49.454Z,95260.50
2022-11-19T22:00:50.914Z,95258.16
2022-11-19T22:06:05.646Z,95271.53
2022-11-19T22:11:09.013Z,95262.81
2022-11-19T22:16:10.419Z,95267.13
2022-11-19T22:21:12.111Z,95267.00
2022-11-19T22:26:14.439Z,95274.38
2022-11-19T22:31:15.834Z,95274.66
2022-11-19T22:36:19.064Z,95278.72
2022-11-19T22:41:21.679Z,95274.31
2022-11-19T22:46:23.204Z,95280.88
2022-11-19T22:51:25.933Z,95266.38
2022-11-19T22:56:29.345Z,95271.38
2022-11-19T23:01:32.984Z,95283.81
2022-11-19T23:06:36.004Z,95281.28
2022-11-19T23:11:37.502Z,95283.56
2022-11-19T23:16:40.322Z,95294.25
2022-11-19T23:21:41.870Z,95290.22
2022-11-19T23:26:43.357Z,95290.56
2022-11-19T23:31:44.884Z,95299.03
2022-11-19T23:36:46.377Z,95298.09
2022-11-19T23:41:48.422Z,95299.88
2022-11-19T23:46:49.857Z,95298.94
2022-11-19T23:51:51.264Z,95300.84
2022-11-19T23:56:52.787Z,95301.91
